首页
METAR-TAF:

METAR-TAF

机场 :

Resolute, 努那武特, 加拿大

纬度: 74-43N, 经度: 094-59W, 海拔: 67米

当前天气观测

该预报发布于1小时和6分钟前的03:00 UTC
风速5节,风向西北
温度 0°C
湿度 93%
气压 1011 hPa
能見度: 0.6公里
阴天层高于1500英尺

METAR: CYRB 230300Z 31005KT 3/8SM R35/1800FT/N FG OVC015 00/M01 A2984 RMK FG7SC1 SLP114

时间: 23:06 (04:06 UTC)

预报

该预报发布于1小时和48分钟前的02:18 UTC
预报有效从23日的 02点(UTC)到 23日的 24点(UTC)
风速10节,风向西转西北
能見度: 10公里
阴天层高于1500英尺
短暂存在
从 23日的 02点(UTC)到 23日的 06点(UTC)
能見度: 0.6公里
散云层高于200英尺
阴天层高于1000英尺
从 23日的 0600点(UTC)
风速10节,风向西
能見度: 10公里
阴天层高于1200英尺
短暂存在
从 23日的 06点(UTC)到 23日的 15点(UTC)
能見度: 3.2公里
阴天层高于600英尺
小雪, 轻雾
从 23日的 1500点(UTC)
风速10节,风向西
能見度: 10公里
阴天层高于800英尺
短暂存在
从 23日的 15点(UTC)到 23日的 24点(UTC)
能見度: 3.2公里
阴天层高于400英尺
小雨, 雪, 轻雾

TAF: CYRB 230218Z 2302/2324 30010KT P6SM OVC015 TEMPO 2302/2306 3/8SM FG SCT002 OVC010 FM230600 28010KT P6SM OVC012 TEMPO 2306/2315 2SM -SN BR OVC006 FM231500 28010KT P6SM OVC008 TEMPO 2315/2324 2SM -RASN BR OVC004 RMK NXT FCST BY 230600Z

超过4000个机场的气象观测和天气预报(METAR&TAF报告)。

可查询的气象台以黄色和红色小点在地图上表示。

将鼠标移到小点上方,可查看气象台名称。

然后点击查看天气观测和预报。

如需切换地图:点击带黑十字的绿色按钮放大地图;点击带横线的绿色按钮缩小地图;或者点击绿色箭头查看邻近地区的地图。


METAR-TAF: